sensor_id;sensor_type;location;lat;lon;timestamp;pressure;altitude;pressure_sealevel;temperature;humidity
58092;BME280;43896;48.178;11.578;2022-09-29T00:02:15;94470.28;;;10.08;75.90
58092;BME280;43896;48.178;11.578;2022-09-29T00:04:41;94464.94;;;10.01;75.31
58092;BME280;43896;48.178;11.578;2022-09-29T00:07:06;94485.38;;;9.84;76.24
58092;BME280;43896;48.178;11.578;2022-09-29T00:09:32;94484.06;;;9.95;76.76
58092;BME280;43896;48.178;11.578;2022-09-29T00:11:57;94486.66;;;10.10;76.60
58092;BME280;43896;48.178;11.578;2022-09-29T00:14:23;94464.59;;;10.04;76.09
58092;BME280;43896;48.178;11.578;2022-09-29T00:16:49;94473.19;;;9.98;77.37
58092;BME280;43896;48.178;11.578;2022-09-29T00:19:15;94443.31;;;9.56;78.12
58092;BME280;43896;48.178;11.578;2022-09-29T00:21:40;94477.81;;;9.53;78.76
58092;BME280;43896;48.178;11.578;2022-09-29T00:24:05;94457.91;;;9.80;76.74
58092;BME280;43896;48.178;11.578;2022-09-29T00:26:32;94397.69;;;9.35;76.86
58092;BME280;43896;48.178;11.578;2022-09-29T00:28:58;94476.31;;;10.08;76.06
58092;BME280;43896;48.178;11.578;2022-09-29T00:31:26;94488.41;;;10.03;77.02
58092;BME280;43896;48.178;11.578;2022-09-29T00:33:52;94459.31;;;10.04;76.64
58092;BME280;43896;48.178;11.578;2022-09-29T00:36:19;94465.88;;;10.15;76.42
58092;BME280;43896;48.178;11.578;2022-09-29T00:38:47;94462.25;;;10.16;76.77
58092;BME280;43896;48.178;11.578;2022-09-29T00:41:18;94469.44;;;9.86;78.12
58092;BME280;43896;48.178;11.578;2022-09-29T00:49:05;94417.88;;;9.56;77.61
58092;BME280;43896;48.178;11.578;2022-09-29T00:51:34;94452.75;;;9.93;77.09
58092;BME280;43896;48.178;11.578;2022-09-29T00:54:01;94392.56;;;9.49;77.43
58092;BME280;43896;48.178;11.578;2022-09-29T00:56:28;94439.56;;;9.65;78.64
58092;BME280;43896;48.178;11.578;2022-09-29T00:58:57;94448.75;;;9.76;78.47
58092;BME280;43896;48.178;11.578;2022-09-29T01:01:28;94440.88;;;9.76;78.31
58092;BME280;43896;48.178;11.578;2022-09-29T01:03:59;94384.31;;;9.30;78.07
58092;BME280;43896;48.178;11.578;2022-09-29T01:06:45;94439.34;;;9.82;77.37
58092;BME280;43896;48.178;11.578;2022-09-29T01:09:16;94405.28;;;9.95;76.11
58092;BME280;43896;48.178;11.578;2022-09-29T01:11:44;94346.06;;;9.64;76.65
58092;BME280;43896;48.178;11.578;2022-09-29T01:14:10;94448.88;;;10.11;76.37
58092;BME280;43896;48.178;11.578;2022-09-29T01:16:37;94419.25;;;9.74;76.89
58092;BME280;43896;48.178;11.578;2022-09-29T01:19:10;94428.19;;;9.80;77.39
58092;BME280;43896;48.178;11.578;2022-09-29T01:24:39;94389.69;;;9.87;76.11
58092;BME280;43896;48.178;11.578;2022-09-29T01:30:11;94396.13;;;9.84;76.76
58092;BME280;43896;48.178;11.578;2022-09-29T01:32:56;94385.50;;;9.71;76.76
58092;BME280;43896;48.178;11.578;2022-09-29T01:40:53;94445.19;;;10.05;76.98
58092;BME280;43896;48.178;11.578;2022-09-29T01:43:24;94409.25;;;9.84;77.01
58092;BME280;43896;48.178;11.578;2022-09-29T01:46:11;94441.59;;;9.48;78.87
58092;BME280;43896;48.178;11.578;2022-09-29T01:48:42;94442.81;;;9.67;77.56
58092;BME280;43896;48.178;11.578;2022-09-29T01:51:14;94442.81;;;9.89;76.66
58092;BME280;43896;48.178;11.578;2022-09-29T01:53:50;94418.41;;;9.95;76.18
58092;BME280;43896;48.178;11.578;2022-09-29T01:56:36;94406.94;;;9.74;76.52
58092;BME280;43896;48.178;11.578;2022-09-29T01:59:13;94424.81;;;9.86;76.37
58092;BME280;43896;48.178;11.578;2022-09-29T02:01:42;94424.31;;;9.75;77.32
58092;BME280;43896;48.178;11.578;2022-09-29T02:04:16;94403.94;;;9.56;77.74
58092;BME280;43896;48.178;11.578;2022-09-29T02:06:47;94420.94;;;9.82;77.29
58092;BME280;43896;48.178;11.578;2022-09-29T02:09:21;94404.69;;;9.50;76.43
58092;BME280;43896;48.178;11.578;2022-09-29T02:11:49;94410.81;;;9.79;76.18
58092;BME280;43896;48.178;11.578;2022-09-29T02:14:24;94401.44;;;9.48;76.22
58092;BME280;43896;48.178;11.578;2022-09-29T02:16:59;94437.13;;;9.85;75.65
58092;BME280;43896;48.178;11.578;2022-09-29T02:19:25;94430.06;;;9.64;76.97
58092;BME280;43896;48.178;11.578;2022-09-29T02:21:53;94399.22;;;9.30;77.83
58092;BME280;43896;48.178;11.578;2022-09-29T02:24:20;94396.84;;;9.35;78.21
58092;BME280;43896;48.178;11.578;2022-09-29T02:26:46;94395.94;;;9.64;76.76
58092;BME280;43896;48.178;11.578;2022-09-29T02:29:13;94432.25;;;9.61;77.44
58092;BME280;43896;48.178;11.578;2022-09-29T02:31:39;94368.81;;;9.57;76.79
58092;BME280;43896;48.178;11.578;2022-09-29T02:34:07;94385.94;;;9.74;76.14
58092;BME280;43896;48.178;11.578;2022-09-29T02:36:53;94427.63;;;10.06;75.29
58092;BME280;43896;48.178;11.578;2022-09-29T02:42:06;94415.72;;;9.88;74.98
58092;BME280;43896;48.178;11.578;2022-09-29T02:55:56;94432.13;;;9.90;75.66
58092;BME280;43896;48.178;11.578;2022-09-29T02:58:36;94420.13;;;9.81;74.93
58092;BME280;43896;48.178;11.578;2022-09-29T03:01:03;94438.19;;;9.91;75.12
58092;BME280;43896;48.178;11.578;2022-09-29T03:03:30;94428.88;;;9.88;75.51
58092;BME280;43896;48.178;11.578;2022-09-29T03:05:55;94398.06;;;9.54;76.85
58092;BME280;43896;48.178;11.578;2022-09-29T03:08:21;94414.66;;;9.39;78.29
58092;BME280;43896;48.178;11.578;2022-09-29T03:10:46;94408.28;;;9.49;78.17
58092;BME280;43896;48.178;11.578;2022-09-29T03:13:11;94366.81;;;9.37;76.59
58092;BME280;43896;48.178;11.578;2022-09-29T03:15:36;94391.56;;;9.71;76.27
58092;BME280;43896;48.178;11.578;2022-09-29T03:18:02;94395.75;;;9.87;75.64
58092;BME280;43896;48.178;11.578;2022-09-29T03:20:28;94405.94;;;9.97;75.36
58092;BME280;43896;48.178;11.578;2022-09-29T03:22:55;94421.78;;;10.10;75.58
58092;BME280;43896;48.178;11.578;2022-09-29T03:25:21;94375.09;;;9.56;76.86
58092;BME280;43896;48.178;11.578;2022-09-29T03:27:49;94405.56;;;9.57;77.11
58092;BME280;43896;48.178;11.578;2022-09-29T03:30:15;94403.56;;;9.59;76.72
58092;BME280;43896;48.178;11.578;2022-09-29T03:32:42;94388.13;;;9.49;75.69
58092;BME280;43896;48.178;11.578;2022-09-29T03:35:08;94397.19;;;9.47;75.65
58092;BME280;43896;48.178;11.578;2022-09-29T03:37:33;94420.63;;;9.70;75.99
58092;BME280;43896;48.178;11.578;2022-09-29T03:39:59;94417.06;;;9.99;74.83
58092;BME280;43896;48.178;11.578;2022-09-29T03:42:24;94417.31;;;9.83;75.05
58092;BME280;43896;48.178;11.578;2022-09-29T03:44:52;94389.56;;;9.73;74.66
58092;BME280;43896;48.178;11.578;2022-09-29T03:47:17;94379.56;;;9.62;76.16
58092;BME280;43896;48.178;11.578;2022-09-29T03:49:43;94377.56;;;9.43;76.80
58092;BME280;43896;48.178;11.578;2022-09-29T03:52:08;94391.09;;;9.89;75.94
58092;BME280;43896;48.178;11.578;2022-09-29T03:54:33;94396.97;;;9.91;75.92
58092;BME280;43896;48.178;11.578;2022-09-29T03:56:58;94371.88;;;9.82;75.41
58092;BME280;43896;48.178;11.578;2022-09-29T03:59:24;94417.69;;;9.80;76.42
58092;BME280;43896;48.178;11.578;2022-09-29T04:01:49;94404.38;;;9.23;77.03
58092;BME280;43896;48.178;11.578;2022-09-29T04:04:14;94409.47;;;9.25;76.66
58092;BME280;43896;48.178;11.578;2022-09-29T04:06:40;94423.28;;;9.33;76.85
58092;BME280;43896;48.178;11.578;2022-09-29T04:09:05;94407.94;;;9.52;75.47
58092;BME280;43896;48.178;11.578;2022-09-29T04:11:30;94431.38;;;9.97;75.05
58092;BME280;43896;48.178;11.578;2022-09-29T04:13:56;94429.31;;;9.70;75.24
58092;BME280;43896;48.178;11.578;2022-09-29T04:16:21;94357.75;;;9.40;75.04
58092;BME280;43896;48.178;11.578;2022-09-29T04:18:47;94404.75;;;9.56;75.29
58092;BME280;43896;48.178;11.578;2022-09-29T04:21:12;94359.94;;;9.36;75.40
58092;BME280;43896;48.178;11.578;2022-09-29T04:23:37;94410.69;;;9.65;76.56
58092;BME280;43896;48.178;11.578;2022-09-29T04:26:03;94387.00;;;9.58;74.78
58092;BME280;43896;48.178;11.578;2022-09-29T04:28:33;94426.97;;;10.04;74.73
58092;BME280;43896;48.178;11.578;2022-09-29T04:31:00;94417.97;;;10.13;74.69
58092;BME280;43896;48.178;11.578;2022-09-29T04:33:25;94413.41;;;10.00;75.12
58092;BME280;43896;48.178;11.578;2022-09-29T04:35:51;94405.38;;;9.80;75.01
58092;BME280;43896;48.178;11.578;2022-09-29T04:38:16;94404.56;;;9.58;75.81
58092;BME280;43896;48.178;11.578;2022-09-29T04:40:41;94399.09;;;9.16;77.15
58092;BME280;43896;48.178;11.578;2022-09-29T04:43:07;94423.22;;;9.27;77.50
58092;BME280;43896;48.178;11.578;2022-09-29T04:45:32;94425.56;;;9.58;76.27
58092;BME280;43896;48.178;11.578;2022-09-29T04:47:57;94439.94;;;9.62;76.45
58092;BME280;43896;48.178;11.578;2022-09-29T04:50:23;94403.38;;;9.39;75.61
58092;BME280;43896;48.178;11.578;2022-09-29T04:52:49;94430.88;;;9.28;76.18
58092;BME280;43896;48.178;11.578;2022-09-29T04:55:15;94397.56;;;9.65;75.78
58092;BME280;43896;48.178;11.578;2022-09-29T04:57:41;94391.28;;;9.88;75.53
58092;BME280;43896;48.178;11.578;2022-09-29T05:00:08;94406.03;;;10.10;76.21
58092;BME280;43896;48.178;11.578;2022-09-29T05:02:34;94408.56;;;9.54;77.63
58092;BME280;43896;48.178;11.578;2022-09-29T05:05:00;94407.63;;;9.62;78.37
58092;BME280;43896;48.178;11.578;2022-09-29T05:07:26;94403.69;;;9.94;77.07
58092;BME280;43896;48.178;11.578;2022-09-29T05:09:51;94376.59;;;9.93;76.73
58092;BME280;43896;48.178;11.578;2022-09-29T05:12:16;94399.91;;;10.03;76.50
58092;BME280;43896;48.178;11.578;2022-09-29T05:14:42;94399.22;;;9.94;76.08
58092;BME280;43896;48.178;11.578;2022-09-29T05:17:07;94393.69;;;9.83;76.89
58092;BME280;43896;48.178;11.578;2022-09-29T05:19:32;94382.63;;;9.87;76.10
58092;BME280;43896;48.178;11.578;2022-09-29T05:21:58;94398.06;;;9.97;76.68
58092;BME280;43896;48.178;11.578;2022-09-29T05:24:24;94403.09;;;9.99;76.48
58092;BME280;43896;48.178;11.578;2022-09-29T05:26:50;94403.50;;;9.95;76.57
58092;BME280;43896;48.178;11.578;2022-09-29T05:29:15;94389.69;;;9.87;76.43
58092;BME280;43896;48.178;11.578;2022-09-29T05:31:41;94413.41;;;10.00;76.45
58092;BME280;43896;48.178;11.578;2022-09-29T05:34:09;94399.22;;;9.94;76.24
58092;BME280;43896;48.178;11.578;2022-09-29T05:36:35;94387.44;;;9.84;75.73
58092;BME280;43896;48.178;11.578;2022-09-29T05:39:01;94399.41;;;9.93;76.31
58092;BME280;43896;48.178;11.578;2022-09-29T05:41:26;94356.50;;;9.79;76.62
58092;BME280;43896;48.178;11.578;2022-09-29T05:43:53;94384.53;;;10.00;76.48
58092;BME280;43896;48.178;11.578;2022-09-29T05:46:19;94378.03;;;9.96;76.28
58092;BME280;43896;48.178;11.578;2022-09-29T05:48:46;94385.16;;;10.02;76.24
58092;BME280;43896;48.178;11.578;2022-09-29T05:51:14;94376.47;;;9.15;79.34
58092;BME280;43896;48.178;11.578;2022-09-29T05:53:40;94385.94;;;9.53;79.15
58092;BME280;43896;48.178;11.578;2022-09-29T05:56:11;94397.44;;;9.73;77.46
58092;BME280;43896;48.178;11.578;2022-09-29T05:58:37;94401.56;;;9.83;77.81
58092;BME280;43896;48.178;11.578;2022-09-29T06:01:12;94383.34;;;9.81;77.62
58092;BME280;43896;48.178;11.578;2022-09-29T06:03:37;94401.84;;;9.94;77.90
58092;BME280;43896;48.178;11.578;2022-09-29T06:06:24;94391.38;;;9.51;78.32
58092;BME280;43896;48.178;11.578;2022-09-29T06:08:50;94396.41;;;8.95;80.36
58092;BME280;43896;48.178;11.578;2022-09-29T06:11:17;94374.34;;;8.53;80.48
58092;BME280;43896;48.178;11.578;2022-09-29T06:13:45;94372.69;;;8.52;81.63
58092;BME280;43896;48.178;11.578;2022-09-29T06:16:12;94383.31;;;8.80;81.08
58092;BME280;43896;48.178;11.578;2022-09-29T06:18:37;94397.09;;;8.67;81.32
58092;BME280;43896;48.178;11.578;2022-09-29T06:21:08;94402.53;;;9.38;80.24
58092;BME280;43896;48.178;11.578;2022-09-29T06:23:34;94400.31;;;9.79;78.30
58092;BME280;43896;48.178;11.578;2022-09-29T06:26:01;94405.81;;;9.62;77.53
58092;BME280;43896;48.178;11.578;2022-09-29T06:28:29;94392.56;;;9.27;78.88
58092;BME280;43896;48.178;11.578;2022-09-29T06:31:03;94377.69;;;9.13;80.07
58092;BME280;43896;48.178;11.578;2022-09-29T06:33:29;94392.41;;;9.14;79.83
58092;BME280;43896;48.178;11.578;2022-09-29T06:35:55;94395.16;;;9.27;79.60
58092;BME280;43896;48.178;11.578;2022-09-29T06:38:40;94383.66;;;8.92;80.80
58092;BME280;43896;48.178;11.578;2022-09-29T06:41:06;94386.53;;;9.12;80.37
58092;BME280;43896;48.178;11.578;2022-09-29T06:43:32;94389.66;;;8.86;81.26
58092;BME280;43896;48.178;11.578;2022-09-29T06:45:57;94398.66;;;9.13;80.95
58092;BME280;43896;48.178;11.578;2022-09-29T06:48:23;94397.38;;;9.09;80.00
58092;BME280;43896;48.178;11.578;2022-09-29T06:50:48;94390.81;;;9.34;79.48
58092;BME280;43896;48.178;11.578;2022-09-29T06:53:13;94418.44;;;9.52;79.15
58092;BME280;43896;48.178;11.578;2022-09-29T06:55:39;94395.69;;;9.81;77.31
58092;BME280;43896;48.178;11.578;2022-09-29T06:58:04;94422.31;;;9.77;77.46
58092;BME280;43896;48.178;11.578;2022-09-29T07:00:30;94416.56;;;9.89;77.26
58092;BME280;43896;48.178;11.578;2022-09-29T07:02:56;94424.47;;;10.17;76.93
58092;BME280;43896;48.178;11.578;2022-09-29T07:05:22;94418.59;;;10.37;75.91
58092;BME280;43896;48.178;11.578;2022-09-29T07:07:47;94418.47;;;10.51;75.21
58092;BME280;43896;48.178;11.578;2022-09-29T07:10:13;94397.22;;;10.46;75.83
58092;BME280;43896;48.178;11.578;2022-09-29T07:12:40;94430.81;;;10.29;75.93
58092;BME280;43896;48.178;11.578;2022-09-29T07:15:05;94419.50;;;9.79;77.88
58092;BME280;43896;48.178;11.578;2022-09-29T07:17:31;94425.06;;;9.69;78.86
58092;BME280;43896;48.178;11.578;2022-09-29T07:19:56;94424.25;;;9.69;78.54
58092;BME280;43896;48.178;11.578;2022-09-29T07:22:22;94433.56;;;9.71;77.29
58092;BME280;43896;48.178;11.578;2022-09-29T07:24:47;94416.16;;;9.49;77.62
58092;BME280;43896;48.178;11.578;2022-09-29T07:27:15;94434.81;;;9.75;76.76
58092;BME280;43896;48.178;11.578;2022-09-29T07:29:40;94429.50;;;9.69;77.73
58092;BME280;43896;48.178;11.578;2022-09-29T07:32:06;94432.75;;;9.71;77.33
58092;BME280;43896;48.178;11.578;2022-09-29T07:34:31;94417.00;;;9.49;76.45
58092;BME280;43896;48.178;11.578;2022-09-29T07:36:56;94431.78;;;10.22;74.61
58092;BME280;43896;48.178;11.578;2022-09-29T07:39:22;94414.00;;;9.95;75.93
58092;BME280;43896;48.178;11.578;2022-09-29T07:41:47;94429.91;;;10.16;76.10
58092;BME280;43896;48.178;11.578;2022-09-29T07:44:13;94425.94;;;9.98;77.35
58092;BME280;43896;48.178;11.578;2022-09-29T07:46:38;94434.75;;;9.69;76.60
58092;BME280;43896;48.178;11.578;2022-09-29T07:49:03;94428.66;;;9.47;76.87
58092;BME280;43896;48.178;11.578;2022-09-29T07:51:29;94433.63;;;9.56;77.66
58092;BME280;43896;48.178;11.578;2022-09-29T07:53:54;94432.88;;;9.63;76.53
58092;BME280;43896;48.178;11.578;2022-09-29T07:56:21;94428.38;;;9.78;76.43
58092;BME280;43896;48.178;11.578;2022-09-29T07:58:48;94409.38;;;9.98;75.72
58092;BME280;43896;48.178;11.578;2022-09-29T08:01:14;94432.34;;;10.17;76.73
58092;BME280;43896;48.178;11.578;2022-09-29T08:03:45;94436.00;;;10.16;75.38
58092;BME280;43896;48.178;11.578;2022-09-29T08:06:13;94435.53;;;10.12;75.53
58092;BME280;43896;48.178;11.578;2022-09-29T08:08:39;94418.25;;;9.53;76.14
58092;BME280;43896;48.178;11.578;2022-09-29T08:11:10;94430.91;;;10.14;75.45
58092;BME280;43896;48.178;11.578;2022-09-29T08:13:36;94442.66;;;10.19;75.18
58092;BME280;43896;48.178;11.578;2022-09-29T08:16:03;94436.31;;;10.06;75.16
58092;BME280;43896;48.178;11.578;2022-09-29T08:18:30;94429.00;;;9.80;76.84
58092;BME280;43896;48.178;11.578;2022-09-29T08:20:56;94442.00;;;9.88;77.05
58092;BME280;43896;48.178;11.578;2022-09-29T08:23:22;94447.88;;;9.69;76.79
58092;BME280;43896;48.178;11.578;2022-09-29T08:25:47;94437.75;;;9.44;77.94
58092;BME280;43896;48.178;11.578;2022-09-29T08:28:13;94450.44;;;9.84;76.96
58092;BME280;43896;48.178;11.578;2022-09-29T08:30:38;94430.16;;;9.34;77.78
58092;BME280;43896;48.178;11.578;2022-09-29T08:33:03;94459.53;;;10.31;75.67
58092;BME280;43896;48.178;11.578;2022-09-29T08:35:32;94448.06;;;9.89;74.50
58092;BME280;43896;48.178;11.578;2022-09-29T08:37:58;94399.28;;;9.80;75.19
58092;BME280;43896;48.178;11.578;2022-09-29T08:40:27;94458.31;;;10.05;75.81
58092;BME280;43896;48.178;11.578;2022-09-29T08:42:56;94462.94;;;10.03;77.56
58092;BME280;43896;48.178;11.578;2022-09-29T08:45:31;94456.66;;;10.47;77.69
58092;BME280;43896;48.178;11.578;2022-09-29T08:48:05;94452.03;;;10.84;76.23
58092;BME280;43896;48.178;11.578;2022-09-29T08:50:45;94451.03;;;10.29;77.59
58092;BME280;43896;48.178;11.578;2022-09-29T08:53:16;94464.25;;;10.64;77.14
58092;BME280;43896;48.178;11.578;2022-09-29T08:55:51;94458.84;;;10.72;75.38
58092;BME280;43896;48.178;11.578;2022-09-29T08:58:18;94459.59;;;10.94;74.82
58092;BME280;43896;48.178;11.578;2022-09-29T09:09:09;94462.66;;;10.41;76.72
58092;BME280;43896;48.178;11.578;2022-09-29T09:11:55;94471.47;;;10.83;74.38
58092;BME280;43896;48.178;11.578;2022-09-29T09:20:15;94470.38;;;10.71;74.48
58092;BME280;43896;48.178;11.578;2022-09-29T09:22:58;94468.56;;;10.22;75.01
58092;BME280;43896;48.178;11.578;2022-09-29T09:25:33;94473.44;;;10.46;76.06
58092;BME280;43896;48.178;11.578;2022-09-29T09:28:30;94485.69;;;10.18;76.60
58092;BME280;43896;48.178;11.578;2022-09-29T09:31:05;94470.84;;;9.82;77.20
58092;BME280;43896;48.178;11.578;2022-09-29T09:33:38;94496.31;;;10.31;76.62
58092;BME280;43896;48.178;11.578;2022-09-29T09:36:44;94474.22;;;10.40;75.67
58092;BME280;43896;48.178;11.578;2022-09-29T09:39:15;94496.31;;;10.31;76.87
58092;BME280;43896;48.178;11.578;2022-09-29T09:41:45;94490.09;;;10.60;76.64
58092;BME280;43896;48.178;11.578;2022-09-29T09:46:53;94467.78;;;10.49;75.80
58092;BME280;43896;48.178;11.578;2022-09-29T09:49:41;94458.50;;;10.82;76.14
58092;BME280;43896;48.178;11.578;2022-09-29T09:52:24;94478.34;;;10.84;75.98
58092;BME280;43896;48.178;11.578;2022-09-29T09:54:53;94462.22;;;10.59;75.91
58092;BME280;43896;48.178;11.578;2022-09-29T10:00:11;94490.75;;;10.97;74.02
58092;BME280;43896;48.178;11.578;2022-09-29T10:02:43;94477.97;;;10.59;75.50
58092;BME280;43896;48.178;11.578;2022-09-29T10:05:14;94482.91;;;10.41;76.85
58092;BME280;43896;48.178;11.578;2022-09-29T10:07:40;94482.72;;;11.12;76.23
58092;BME280;43896;48.178;11.578;2022-09-29T10:10:17;94473.38;;;11.03;76.76
58092;BME280;43896;48.178;11.578;2022-09-29T10:12:43;94461.38;;;10.87;75.47
58092;BME280;43896;48.178;11.578;2022-09-29T10:15:42;94474.75;;;10.64;75.96
58092;BME280;43896;48.178;11.578;2022-09-29T10:24:02;94493.31;;;11.25;74.92
58092;BME280;43896;48.178;11.578;2022-09-29T10:26:43;94487.81;;;11.55;75.96
58092;BME280;43896;48.178;11.578;2022-09-29T10:32:29;94503.72;;;10.70;77.39
58092;BME280;43896;48.178;11.578;2022-09-29T10:35:23;94497.84;;;11.38;74.74
58092;BME280;43896;48.178;11.578;2022-09-29T10:38:07;94490.84;;;11.17;74.36
58092;BME280;43896;48.178;11.578;2022-09-29T10:40:55;94497.06;;;10.68;74.88
58092;BME280;43896;48.178;11.578;2022-09-29T10:43:37;94487.38;;;10.75;76.74
58092;BME280;43896;48.178;11.578;2022-09-29T10:46:04;94504.31;;;10.66;76.06
58092;BME280;43896;48.178;11.578;2022-09-29T10:48:30;94513.47;;;11.05;77.59
58092;BME280;43896;48.178;11.578;2022-09-29T10:50:59;94512.47;;;10.78;75.35
58092;BME280;43896;48.178;11.578;2022-09-29T10:53:39;94506.41;;;10.49;74.19
58092;BME280;43896;48.178;11.578;2022-09-29T10:56:17;94515.06;;;10.43;74.36
58092;BME280;43896;48.178;11.578;2022-09-29T10:58:51;94508.56;;;10.67;73.75
58092;BME280;43896;48.178;11.578;2022-09-29T11:01:18;94508.63;;;11.08;72.81
58092;BME280;43896;48.178;11.578;2022-09-29T11:04:00;94499.84;;;11.30;72.09
58092;BME280;43896;48.178;11.578;2022-09-29T11:06:35;94502.59;;;11.63;71.94
58092;BME280;43896;48.178;11.578;2022-09-29T11:09:24;94493.91;;;11.69;73.08
58092;BME280;43896;48.178;11.578;2022-09-29T11:11:54;94515.97;;;11.61;75.45
58092;BME280;43896;48.178;11.578;2022-09-29T11:14:30;94521.50;;;11.80;74.66
58092;BME280;43896;48.178;11.578;2022-09-29T11:17:01;94518.06;;;11.79;73.58
58092;BME280;43896;48.178;11.578;2022-09-29T11:19:30;94512.56;;;11.68;71.86
58092;BME280;43896;48.178;11.578;2022-09-29T11:24:30;94523.66;;;11.15;73.79
58092;BME280;43896;48.178;11.578;2022-09-29T11:29:58;94517.31;;;11.44;71.88
58092;BME280;43896;48.178;11.578;2022-09-29T11:38:29;94530.38;;;10.89;77.13
58092;BME280;43896;48.178;11.578;2022-09-29T11:41:52;94521.66;;;11.23;76.46
58092;BME280;43896;48.178;11.578;2022-09-29T11:43:54;94535.34;;;11.47;76.20
58092;BME280;43896;48.178;11.578;2022-09-29T11:46:53;94525.97;;;11.79;74.79
58092;BME280;43896;48.178;11.578;2022-09-29T11:52:26;94527.06;;;11.50;76.09
58092;BME280;43896;48.178;11.578;2022-09-29T11:55:18;94519.56;;;11.12;78.35
58092;BME280;43896;48.178;11.578;2022-09-29T12:08:49;94541.03;;;11.09;77.74
58092;BME280;43896;48.178;11.578;2022-09-29T12:14:40;94540.16;;;11.02;77.72
58092;BME280;43896;48.178;11.578;2022-09-29T12:17:11;94525.69;;;11.19;77.41
58092;BME280;43896;48.178;11.578;2022-09-29T12:19:40;94523.22;;;11.11;77.82
58092;BME280;43896;48.178;11.578;2022-09-29T12:22:09;94527.59;;;10.97;79.15
58092;BME280;43896;48.178;11.578;2022-09-29T12:24:39;94534.66;;;10.68;80.40
58092;BME280;43896;48.178;11.578;2022-09-29T12:27:20;94538.97;;;11.04;79.36
58092;BME280;43896;48.178;11.578;2022-09-29T12:29:55;94525.25;;;11.09;78.41
58092;BME280;43896;48.178;11.578;2022-09-29T12:32:27;94539.75;;;11.33;77.36
58092;BME280;43896;48.178;11.578;2022-09-29T12:34:58;94523.56;;;11.43;76.51
58092;BME280;43896;48.178;11.578;2022-09-29T12:37:28;94531.69;;;11.06;77.07
58092;BME280;43896;48.178;11.578;2022-09-29T12:40:06;94528.78;;;10.95;77.43
58092;BME280;43896;48.178;11.578;2022-09-29T12:45:21;94531.47;;;11.43;76.78
58092;BME280;43896;48.178;11.578;2022-09-29T12:48:00;94524.88;;;11.19;76.53
58092;BME280;43896;48.178;11.578;2022-09-29T12:50:48;94523.97;;;10.70;75.91
58092;BME280;43896;48.178;11.578;2022-09-29T12:53:26;94521.94;;;10.72;78.45
58092;BME280;43896;48.178;11.578;2022-09-29T12:56:03;94499.84;;;10.17;78.63
58092;BME280;43896;48.178;11.578;2022-09-29T13:06:51;94527.81;;;10.46;77.56
58092;BME280;43896;48.178;11.578;2022-09-29T13:09:25;94521.47;;;10.62;77.62
58092;BME280;43896;48.178;11.578;2022-09-29T13:14:51;94511.56;;;11.27;74.99
58092;BME280;43896;48.178;11.578;2022-09-29T13:17:33;94527.84;;;11.44;76.78
58092;BME280;43896;48.178;11.578;2022-09-29T13:25:47;94537.13;;;11.05;75.30
58092;BME280;43896;48.178;11.578;2022-09-29T13:28:26;94541.16;;;11.36;74.22
58092;BME280;43896;48.178;11.578;2022-09-29T13:30:54;94545.91;;;11.19;75.24
58092;BME280;43896;48.178;11.578;2022-09-29T13:33:24;94546.56;;;11.27;74.50
58092;BME280;43896;48.178;11.578;2022-09-29T13:35:51;94542.41;;;11.05;74.78
58092;BME280;43896;48.178;11.578;2022-09-29T13:38:29;94516.53;;;11.50;72.88
58092;BME280;43896;48.178;11.578;2022-09-29T13:41:11;94554.53;;;11.82;72.92
58092;BME280;43896;48.178;11.578;2022-09-29T13:54:40;94548.41;;;11.75;73.10
58092;BME280;43896;48.178;11.578;2022-09-29T13:59:39;94561.75;;;10.69;75.88
58092;BME280;43896;48.178;11.578;2022-09-29T14:02:43;94562.03;;;11.02;74.79
58092;BME280;43896;48.178;11.578;2022-09-29T14:08:06;94570.34;;;11.06;75.19
58092;BME280;43896;48.178;11.578;2022-09-29T14:13:11;94577.84;;;10.81;75.41
58092;BME280;43896;48.178;11.578;2022-09-29T14:15:42;94564.44;;;10.47;77.00
58092;BME280;43896;48.178;11.578;2022-09-29T14:18:26;94585.72;;;10.53;77.72
58092;BME280;43896;48.178;11.578;2022-09-29T14:21:00;94580.19;;;10.47;77.10
58092;BME280;43896;48.178;11.578;2022-09-29T14:23:53;94563.41;;;10.27;76.97
58092;BME280;43896;48.178;11.578;2022-09-29T14:26:47;94594.00;;;10.35;78.24
58092;BME280;43896;48.178;11.578;2022-09-29T14:29:19;94563.69;;;10.32;78.29
58092;BME280;43896;48.178;11.578;2022-09-29T14:31:50;94592.94;;;10.72;77.20
58092;BME280;43896;48.178;11.578;2022-09-29T14:34:17;94596.47;;;10.58;77.94
58092;BME280;43896;48.178;11.578;2022-09-29T14:36:43;94598.06;;;11.08;76.43
58092;BME280;43896;48.178;11.578;2022-09-29T14:39:12;94598.06;;;10.80;77.32
58092;BME280;43896;48.178;11.578;2022-09-29T14:41:44;94610.81;;;11.05;77.36
58092;BME280;43896;48.178;11.578;2022-09-29T14:44:15;94605.59;;;11.12;76.70
58092;BME280;43896;48.178;11.578;2022-09-29T14:46:53;94609.88;;;11.13;78.04
58092;BME280;43896;48.178;11.578;2022-09-29T14:59:04;94626.13;;;10.73;79.09
58092;BME280;43896;48.178;11.578;2022-09-29T15:01:39;94614.34;;;10.69;77.82
58092;BME280;43896;48.178;11.578;2022-09-29T15:04:18;94612.41;;;10.78;78.60
58092;BME280;43896;48.178;11.578;2022-09-29T15:06:48;94622.53;;;11.02;78.43
58092;BME280;43896;48.178;11.578;2022-09-29T15:09:19;94624.06;;;10.68;78.96
58092;BME280;43896;48.178;11.578;2022-09-29T15:11:52;94626.31;;;10.13;79.42
58092;BME280;43896;48.178;11.578;2022-09-29T15:14:30;94631.00;;;10.33;77.93
58092;BME280;43896;48.178;11.578;2022-09-29T15:20:31;94646.38;;;10.00;78.67
58092;BME280;43896;48.178;11.578;2022-09-29T15:25:42;94628.81;;;9.85;78.05
58092;BME280;43896;48.178;11.578;2022-09-29T15:28:16;94636.53;;;9.72;78.36
58092;BME280;43896;48.178;11.578;2022-09-29T15:30:43;94631.28;;;9.57;79.28
58092;BME280;43896;48.178;11.578;2022-09-29T15:33:20;94631.47;;;9.70;79.96
58092;BME280;43896;48.178;11.578;2022-09-29T15:35:52;94619.13;;;9.86;78.80